sensor_id;sensor_type;location;lat;lon;timestamp;temperature;humidity
15156;DHT22;7678;50.058;8.306;2022-11-15T00:01:18;7.10;99.90
15156;DHT22;7678;50.058;8.306;2022-11-15T00:03:50;7.10;99.90
15156;DHT22;7678;50.058;8.306;2022-11-15T00:06:18;7.20;99.90
15156;DHT22;7678;50.058;8.306;2022-11-15T00:08:46;7.20;99.90
15156;DHT22;7678;50.058;8.306;2022-11-15T00:11:14;7.30;99.90
15156;DHT22;7678;50.058;8.306;2022-11-15T00:13:42;7.40;99.90
15156;DHT22;7678;50.058;8.306;2022-11-15T00:16:11;7.50;99.90
15156;DHT22;7678;50.058;8.306;2022-11-15T00:18:39;7.50;99.90
15156;DHT22;7678;50.058;8.306;2022-11-15T00:21:14;7.40;99.90
15156;DHT22;7678;50.058;8.306;2022-11-15T00:23:42;7.50;99.90
15156;DHT22;7678;50.058;8.306;2022-11-15T00:26:12;7.50;99.90
15156;DHT22;7678;50.058;8.306;2022-11-15T00:28:40;7.50;99.90
15156;DHT22;7678;50.058;8.306;2022-11-15T00:31:12;7.50;99.90
15156;DHT22;7678;50.058;8.306;2022-11-15T00:33:42;7.50;99.90
15156;DHT22;7678;50.058;8.306;2022-11-15T00:36:10;7.50;99.90
15156;DHT22;7678;50.058;8.306;2022-11-15T00:38:39;7.40;99.90
15156;DHT22;7678;50.058;8.306;2022-11-15T00:41:09;7.40;99.90
15156;DHT22;7678;50.058;8.306;2022-11-15T00:43:37;7.40;99.90
15156;DHT22;7678;50.058;8.306;2022-11-15T00:46:11;7.40;99.90
15156;DHT22;7678;50.058;8.306;2022-11-15T00:48:41;7.40;99.90
15156;DHT22;7678;50.058;8.306;2022-11-15T00:51:09;7.40;99.90
15156;DHT22;7678;50.058;8.306;2022-11-15T00:53:37;7.40;99.90
15156;DHT22;7678;50.058;8.306;2022-11-15T00:56:06;7.30;99.90
15156;DHT22;7678;50.058;8.306;2022-11-15T00:58:34;7.20;99.90
15156;DHT22;7678;50.058;8.306;2022-11-15T01:01:06;7.30;99.90
15156;DHT22;7678;50.058;8.306;2022-11-15T01:03:37;7.30;99.90
15156;DHT22;7678;50.058;8.306;2022-11-15T01:06:06;7.30;99.90
15156;DHT22;7678;50.058;8.306;2022-11-15T01:08:35;7.30;99.90
15156;DHT22;7678;50.058;8.306;2022-11-15T01:11:03;7.20;99.90
15156;DHT22;7678;50.058;8.306;2022-11-15T01:13:33;7.20;99.90
15156;DHT22;7678;50.058;8.306;2022-11-15T01:16:06;7.30;99.90
15156;DHT22;7678;50.058;8.306;2022-11-15T01:18:36;7.30;99.90
15156;DHT22;7678;50.058;8.306;2022-11-15T01:21:08;7.40;99.90
15156;DHT22;7678;50.058;8.306;2022-11-15T01:23:37;7.50;99.90
15156;DHT22;7678;50.058;8.306;2022-11-15T01:26:07;7.60;99.90
15156;DHT22;7678;50.058;8.306;2022-11-15T01:28:37;7.60;99.90
15156;DHT22;7678;50.058;8.306;2022-11-15T01:31:13;7.70;99.90
15156;DHT22;7678;50.058;8.306;2022-11-15T01:33:42;7.70;99.90
15156;DHT22;7678;50.058;8.306;2022-11-15T01:36:12;7.70;99.90
15156;DHT22;7678;50.058;8.306;2022-11-15T01:38:40;7.70;99.90
15156;DHT22;7678;50.058;8.306;2022-11-15T01:41:15;7.80;99.90
15156;DHT22;7678;50.058;8.306;2022-11-15T01:43:47;7.80;99.90
15156;DHT22;7678;50.058;8.306;2022-11-15T01:46:23;7.80;99.90
15156;DHT22;7678;50.058;8.306;2022-11-15T01:48:56;7.80;99.90
15156;DHT22;7678;50.058;8.306;2022-11-15T01:51:26;7.80;99.90
15156;DHT22;7678;50.058;8.306;2022-11-15T01:53:58;7.90;99.90
15156;DHT22;7678;50.058;8.306;2022-11-15T01:56:31;7.90;99.90
15156;DHT22;7678;50.058;8.306;2022-11-15T01:59:04;7.90;99.90
15156;DHT22;7678;50.058;8.306;2022-11-15T02:01:34;7.90;99.90
15156;DHT22;7678;50.058;8.306;2022-11-15T02:04:06;8.00;99.90
15156;DHT22;7678;50.058;8.306;2022-11-15T02:06:36;7.90;99.90
15156;DHT22;7678;50.058;8.306;2022-11-15T02:09:05;7.90;99.90
15156;DHT22;7678;50.058;8.306;2022-11-15T02:11:35;8.00;99.90
15156;DHT22;7678;50.058;8.306;2022-11-15T02:14:04;8.10;99.90
15156;DHT22;7678;50.058;8.306;2022-11-15T02:16:38;8.00;99.90
15156;DHT22;7678;50.058;8.306;2022-11-15T02:19:27;7.90;99.90
15156;DHT22;7678;50.058;8.306;2022-11-15T02:22:04;7.80;99.90
15156;DHT22;7678;50.058;8.306;2022-11-15T02:24:59;7.70;99.90
15156;DHT22;7678;50.058;8.306;2022-11-15T02:27:59;7.50;99.90
15156;DHT22;7678;50.058;8.306;2022-11-15T02:30:42;7.40;99.90
15156;DHT22;7678;50.058;8.306;2022-11-15T02:33:20;7.40;99.90
15156;DHT22;7678;50.058;8.306;2022-11-15T02:35:57;7.40;99.90
15156;DHT22;7678;50.058;8.306;2022-11-15T02:38:32;7.40;99.90
15156;DHT22;7678;50.058;8.306;2022-11-15T02:41:04;7.40;99.90
15156;DHT22;7678;50.058;8.306;2022-11-15T02:43:37;7.40;99.90
15156;DHT22;7678;50.058;8.306;2022-11-15T02:46:31;7.50;99.90
15156;DHT22;7678;50.058;8.306;2022-11-15T02:49:22;7.60;99.90
15156;DHT22;7678;50.058;8.306;2022-11-15T02:51:51;7.60;99.90
15156;DHT22;7678;50.058;8.306;2022-11-15T02:54:22;7.60;99.90
15156;DHT22;7678;50.058;8.306;2022-11-15T02:56:53;7.70;99.90
15156;DHT22;7678;50.058;8.306;2022-11-15T02:59:44;7.80;99.90
15156;DHT22;7678;50.058;8.306;2022-11-15T03:02:29;7.90;99.90
15156;DHT22;7678;50.058;8.306;2022-11-15T03:05:06;7.90;99.90
15156;DHT22;7678;50.058;8.306;2022-11-15T03:07:43;7.90;99.90
15156;DHT22;7678;50.058;8.306;2022-11-15T03:10:16;7.90;99.90
15156;DHT22;7678;50.058;8.306;2022-11-15T03:12:50;7.90;99.90
15156;DHT22;7678;50.058;8.306;2022-11-15T03:15:23;7.90;99.90
15156;DHT22;7678;50.058;8.306;2022-11-15T03:17:58;8.00;99.90
15156;DHT22;7678;50.058;8.306;2022-11-15T03:20:29;8.00;99.90
15156;DHT22;7678;50.058;8.306;2022-11-15T03:23:03;8.00;99.90
15156;DHT22;7678;50.058;8.306;2022-11-15T03:25:37;8.10;99.90
15156;DHT22;7678;50.058;8.306;2022-11-15T03:28:06;8.10;99.90
15156;DHT22;7678;50.058;8.306;2022-11-15T03:30:37;8.10;99.90
15156;DHT22;7678;50.058;8.306;2022-11-15T03:33:08;8.10;99.90
15156;DHT22;7678;50.058;8.306;2022-11-15T03:35:43;8.20;99.90
15156;DHT22;7678;50.058;8.306;2022-11-15T03:38:16;8.10;99.90
15156;DHT22;7678;50.058;8.306;2022-11-15T03:40:51;8.10;99.90
15156;DHT22;7678;50.058;8.306;2022-11-15T03:43:28;8.10;99.90
15156;DHT22;7678;50.058;8.306;2022-11-15T03:46:07;8.10;99.90
15156;DHT22;7678;50.058;8.306;2022-11-15T03:48:49;8.10;99.90
15156;DHT22;7678;50.058;8.306;2022-11-15T03:51:18;8.10;99.90
15156;DHT22;7678;50.058;8.306;2022-11-15T03:53:46;8.20;99.90
15156;DHT22;7678;50.058;8.306;2022-11-15T03:56:14;8.20;99.90
15156;DHT22;7678;50.058;8.306;2022-11-15T03:58:42;8.20;99.90
15156;DHT22;7678;50.058;8.306;2022-11-15T04:01:10;8.20;99.90
15156;DHT22;7678;50.058;8.306;2022-11-15T04:03:38;8.20;99.90
15156;DHT22;7678;50.058;8.306;2022-11-15T04:06:07;8.20;99.90
15156;DHT22;7678;50.058;8.306;2022-11-15T04:08:35;8.30;99.90
15156;DHT22;7678;50.058;8.306;2022-11-15T04:11:03;8.30;99.90
15156;DHT22;7678;50.058;8.306;2022-11-15T04:13:33;8.40;99.90
15156;DHT22;7678;50.058;8.306;2022-11-15T04:16:01;8.40;99.90
15156;DHT22;7678;50.058;8.306;2022-11-15T04:18:29;8.40;99.90
15156;DHT22;7678;50.058;8.306;2022-11-15T04:20:57;8.50;99.90
15156;DHT22;7678;50.058;8.306;2022-11-15T04:23:43;8.50;99.90
15156;DHT22;7678;50.058;8.306;2022-11-15T04:26:28;8.60;99.90
15156;DHT22;7678;50.058;8.306;2022-11-15T04:28:56;8.70;99.90
15156;DHT22;7678;50.058;8.306;2022-11-15T04:31:42;8.70;99.90
15156;DHT22;7678;50.058;8.306;2022-11-15T04:34:10;8.70;99.90
15156;DHT22;7678;50.058;8.306;2022-11-15T04:36:38;8.70;99.90
15156;DHT22;7678;50.058;8.306;2022-11-15T04:39:25;8.70;99.90
15156;DHT22;7678;50.058;8.306;2022-11-15T04:41:53;8.70;99.90
15156;DHT22;7678;50.058;8.306;2022-11-15T04:44:20;8.70;99.90
15156;DHT22;7678;50.058;8.306;2022-11-15T04:46:48;8.60;99.90
15156;DHT22;7678;50.058;8.306;2022-11-15T04:49:16;8.60;99.90
15156;DHT22;7678;50.058;8.306;2022-11-15T04:51:44;8.50;99.90
15156;DHT22;7678;50.058;8.306;2022-11-15T04:54:12;8.60;99.90
15156;DHT22;7678;50.058;8.306;2022-11-15T04:56:42;8.70;99.90
15156;DHT22;7678;50.058;8.306;2022-11-15T04:59:10;8.70;99.90
15156;DHT22;7678;50.058;8.306;2022-11-15T05:01:40;8.70;99.90
15156;DHT22;7678;50.058;8.306;2022-11-15T05:04:11;8.60;99.90
15156;DHT22;7678;50.058;8.306;2022-11-15T05:06:48;8.60;99.90
15156;DHT22;7678;50.058;8.306;2022-11-15T05:09:17;8.60;99.90
15156;DHT22;7678;50.058;8.306;2022-11-15T05:11:46;8.60;99.90
15156;DHT22;7678;50.058;8.306;2022-11-15T05:14:14;8.60;99.90
15156;DHT22;7678;50.058;8.306;2022-11-15T05:16:43;8.60;99.90
15156;DHT22;7678;50.058;8.306;2022-11-15T05:19:11;8.60;99.90
15156;DHT22;7678;50.058;8.306;2022-11-15T05:21:39;8.60;99.90
15156;DHT22;7678;50.058;8.306;2022-11-15T05:24:09;8.70;99.90
15156;DHT22;7678;50.058;8.306;2022-11-15T05:26:37;8.60;99.90
15156;DHT22;7678;50.058;8.306;2022-11-15T05:29:09;8.60;99.90
15156;DHT22;7678;50.058;8.306;2022-11-15T05:31:39;8.70;99.90
15156;DHT22;7678;50.058;8.306;2022-11-15T05:34:08;8.70;99.90
15156;DHT22;7678;50.058;8.306;2022-11-15T05:36:38;8.70;99.90
15156;DHT22;7678;50.058;8.306;2022-11-15T05:39:06;8.70;99.90
15156;DHT22;7678;50.058;8.306;2022-11-15T05:41:41;8.70;99.90
15156;DHT22;7678;50.058;8.306;2022-11-15T05:44:16;8.70;99.90
15156;DHT22;7678;50.058;8.306;2022-11-15T05:46:46;8.70;99.90
15156;DHT22;7678;50.058;8.306;2022-11-15T05:49:17;8.60;99.90
15156;DHT22;7678;50.058;8.306;2022-11-15T05:51:47;8.60;99.90
15156;DHT22;7678;50.058;8.306;2022-11-15T05:54:16;8.60;99.90
15156;DHT22;7678;50.058;8.306;2022-11-15T05:56:45;8.60;99.90
15156;DHT22;7678;50.058;8.306;2022-11-15T05:59:15;8.70;99.90
15156;DHT22;7678;50.058;8.306;2022-11-15T06:01:43;8.70;99.90
15156;DHT22;7678;50.058;8.306;2022-11-15T06:04:11;8.70;99.90
15156;DHT22;7678;50.058;8.306;2022-11-15T06:06:39;8.70;99.90
15156;DHT22;7678;50.058;8.306;2022-11-15T06:09:07;8.70;99.90
15156;DHT22;7678;50.058;8.306;2022-11-15T06:11:35;8.80;99.90
15156;DHT22;7678;50.058;8.306;2022-11-15T06:14:03;8.80;99.90
15156;DHT22;7678;50.058;8.306;2022-11-15T06:16:32;8.90;99.90
15156;DHT22;7678;50.058;8.306;2022-11-15T06:19:02;8.80;99.90
15156;DHT22;7678;50.058;8.306;2022-11-15T06:21:32;8.80;99.90
15156;DHT22;7678;50.058;8.306;2022-11-15T06:24:00;8.70;99.90
15156;DHT22;7678;50.058;8.306;2022-11-15T06:26:28;8.70;99.90
15156;DHT22;7678;50.058;8.306;2022-11-15T06:29:00;8.70;99.90
15156;DHT22;7678;50.058;8.306;2022-11-15T06:31:30;8.60;99.90
15156;DHT22;7678;50.058;8.306;2022-11-15T06:33:59;8.60;99.90
15156;DHT22;7678;50.058;8.306;2022-11-15T06:36:27;8.60;99.90
15156;DHT22;7678;50.058;8.306;2022-11-15T06:38:58;8.50;99.90
15156;DHT22;7678;50.058;8.306;2022-11-15T06:41:26;8.50;99.90
15156;DHT22;7678;50.058;8.306;2022-11-15T06:43:54;8.50;99.90
15156;DHT22;7678;50.058;8.306;2022-11-15T06:46:22;8.60;99.90
15156;DHT22;7678;50.058;8.306;2022-11-15T06:48:50;8.60;99.90
15156;DHT22;7678;50.058;8.306;2022-11-15T06:51:20;8.60;99.90
15156;DHT22;7678;50.058;8.306;2022-11-15T06:53:48;8.60;99.90
15156;DHT22;7678;50.058;8.306;2022-11-15T06:56:16;8.60;99.90
15156;DHT22;7678;50.058;8.306;2022-11-15T06:58:44;8.70;99.90
15156;DHT22;7678;50.058;8.306;2022-11-15T07:01:12;8.70;99.90
15156;DHT22;7678;50.058;8.306;2022-11-15T07:03:42;8.80;99.90
15156;DHT22;7678;50.058;8.306;2022-11-15T07:06:10;8.80;99.90
15156;DHT22;7678;50.058;8.306;2022-11-15T07:08:39;8.80;99.90
15156;DHT22;7678;50.058;8.306;2022-11-15T07:11:09;8.90;99.90
15156;DHT22;7678;50.058;8.306;2022-11-15T07:13:37;9.00;99.90
15156;DHT22;7678;50.058;8.306;2022-11-15T07:16:06;9.00;99.90
15156;DHT22;7678;50.058;8.306;2022-11-15T07:18:35;8.90;99.90
15156;DHT22;7678;50.058;8.306;2022-11-15T07:21:06;8.90;99.90
15156;DHT22;7678;50.058;8.306;2022-11-15T07:23:36;9.00;99.90
15156;DHT22;7678;50.058;8.306;2022-11-15T07:26:06;9.10;99.90
15156;DHT22;7678;50.058;8.306;2022-11-15T07:28:35;9.10;99.90
15156;DHT22;7678;50.058;8.306;2022-11-15T07:31:03;9.10;99.90
15156;DHT22;7678;50.058;8.306;2022-11-15T07:33:31;9.20;99.90
15156;DHT22;7678;50.058;8.306;2022-11-15T07:36:00;9.20;99.90
15156;DHT22;7678;50.058;8.306;2022-11-15T07:38:29;9.20;99.90
15156;DHT22;7678;50.058;8.306;2022-11-15T07:40:58;9.10;99.90
15156;DHT22;7678;50.058;8.306;2022-11-15T07:43:28;9.20;99.90
15156;DHT22;7678;50.058;8.306;2022-11-15T07:45:57;9.20;99.90
15156;DHT22;7678;50.058;8.306;2022-11-15T07:48:25;9.20;99.90
15156;DHT22;7678;50.058;8.306;2022-11-15T07:51:11;9.30;99.90
15156;DHT22;7678;50.058;8.306;2022-11-15T07:53:40;9.40;99.90
15156;DHT22;7678;50.058;8.306;2022-11-15T07:56:09;9.50;99.90
15156;DHT22;7678;50.058;8.306;2022-11-15T07:58:38;9.50;99.90
15156;DHT22;7678;50.058;8.306;2022-11-15T08:01:08;9.60;99.90
15156;DHT22;7678;50.058;8.306;2022-11-15T08:03:36;9.60;99.90
15156;DHT22;7678;50.058;8.306;2022-11-15T08:06:05;9.70;99.90
15156;DHT22;7678;50.058;8.306;2022-11-15T08:08:33;9.70;99.90
15156;DHT22;7678;50.058;8.306;2022-11-15T08:11:01;9.70;99.90
15156;DHT22;7678;50.058;8.306;2022-11-15T08:13:29;9.70;99.90
15156;DHT22;7678;50.058;8.306;2022-11-15T08:16:00;9.60;99.90
15156;DHT22;7678;50.058;8.306;2022-11-15T08:18:28;9.70;99.90
15156;DHT22;7678;50.058;8.306;2022-11-15T08:20:59;9.80;99.90
15156;DHT22;7678;50.058;8.306;2022-11-15T08:23:27;9.70;99.90
15156;DHT22;7678;50.058;8.306;2022-11-15T08:26:00;9.70;99.90
15156;DHT22;7678;50.058;8.306;2022-11-15T08:28:29;9.80;99.90
15156;DHT22;7678;50.058;8.306;2022-11-15T08:30:59;9.80;99.90
15156;DHT22;7678;50.058;8.306;2022-11-15T08:33:27;9.80;99.90
15156;DHT22;7678;50.058;8.306;2022-11-15T08:35:56;9.90;99.90
15156;DHT22;7678;50.058;8.306;2022-11-15T08:38:25;9.90;99.90
15156;DHT22;7678;50.058;8.306;2022-11-15T08:41:00;9.90;99.90
15156;DHT22;7678;50.058;8.306;2022-11-15T08:43:29;9.90;99.90
15156;DHT22;7678;50.058;8.306;2022-11-15T08:45:59;9.90;99.90
15156;DHT22;7678;50.058;8.306;2022-11-15T08:48:27;10.00;99.90
15156;DHT22;7678;50.058;8.306;2022-11-15T08:50:56;10.00;99.90
15156;DHT22;7678;50.058;8.306;2022-11-15T08:53:24;10.00;99.90
15156;DHT22;7678;50.058;8.306;2022-11-15T08:55:52;10.00;99.90
15156;DHT22;7678;50.058;8.306;2022-11-15T08:58:20;10.00;99.90
15156;DHT22;7678;50.058;8.306;2022-11-15T09:00:51;10.10;99.90
15156;DHT22;7678;50.058;8.306;2022-11-15T09:03:21;10.10;99.90
15156;DHT22;7678;50.058;8.306;2022-11-15T09:05:49;10.20;99.90
15156;DHT22;7678;50.058;8.306;2022-11-15T09:08:21;10.30;99.90
15156;DHT22;7678;50.058;8.306;2022-11-15T09:11:10;10.30;99.90
15156;DHT22;7678;50.058;8.306;2022-11-15T09:13:39;10.40;99.90
15156;DHT22;7678;50.058;8.306;2022-11-15T09:16:07;10.30;99.90
15156;DHT22;7678;50.058;8.306;2022-11-15T09:18:36;10.30;99.90
15156;DHT22;7678;50.058;8.306;2022-11-15T09:21:07;10.30;99.90
15156;DHT22;7678;50.058;8.306;2022-11-15T09:23:35;10.40;99.90
15156;DHT22;7678;50.058;8.306;2022-11-15T09:26:04;10.50;99.90
15156;DHT22;7678;50.058;8.306;2022-11-15T09:28:33;10.50;99.90
15156;DHT22;7678;50.058;8.306;2022-11-15T09:31:03;10.50;99.90
15156;DHT22;7678;50.058;8.306;2022-11-15T09:33:32;10.50;99.90
15156;DHT22;7678;50.058;8.306;2022-11-15T09:36:03;10.60;99.90
15156;DHT22;7678;50.058;8.306;2022-11-15T09:38:32;10.70;99.90
15156;DHT22;7678;50.058;8.306;2022-11-15T09:41:34;10.70;99.90
15156;DHT22;7678;50.058;8.306;2022-11-15T09:44:16;10.60;99.90
15156;DHT22;7678;50.058;8.306;2022-11-15T09:46:57;10.70;99.90
15156;DHT22;7678;50.058;8.306;2022-11-15T09:49:29;10.60;99.90
15156;DHT22;7678;50.058;8.306;2022-11-15T09:51:59;10.70;99.90
15156;DHT22;7678;50.058;8.306;2022-11-15T09:54:30;10.70;99.90
15156;DHT22;7678;50.058;8.306;2022-11-15T09:57:21;10.70;99.90
15156;DHT22;7678;50.058;8.306;2022-11-15T09:59:59;10.70;99.90
15156;DHT22;7678;50.058;8.306;2022-11-15T10:03:11;10.70;99.90
15156;DHT22;7678;50.058;8.306;2022-11-15T10:05:42;10.70;99.90
15156;DHT22;7678;50.058;8.306;2022-11-15T10:08:25;10.80;99.90
15156;DHT22;7678;50.058;8.306;2022-11-15T10:10:58;10.80;99.90
15156;DHT22;7678;50.058;8.306;2022-11-15T10:13:48;10.80;99.90
15156;DHT22;7678;50.058;8.306;2022-11-15T10:16:32;10.90;99.90
15156;DHT22;7678;50.058;8.306;2022-11-15T10:19:10;10.90;99.90
15156;DHT22;7678;50.058;8.306;2022-11-15T10:21:46;11.00;99.90
15156;DHT22;7678;50.058;8.306;2022-11-15T10:24:22;11.10;99.90
15156;DHT22;7678;50.058;8.306;2022-11-15T10:26:51;11.10;99.90
15156;DHT22;7678;50.058;8.306;2022-11-15T10:29:19;11.10;99.90
15156;DHT22;7678;50.058;8.306;2022-11-15T10:31:53;11.10;99.90
15156;DHT22;7678;50.058;8.306;2022-11-15T10:34:22;11.20;99.90
15156;DHT22;7678;50.058;8.306;2022-11-15T10:36:55;11.20;99.90
15156;DHT22;7678;50.058;8.306;2022-11-15T10:39:25;11.30;99.90
15156;DHT22;7678;50.058;8.306;2022-11-15T10:41:54;11.30;99.90
15156;DHT22;7678;50.058;8.306;2022-11-15T10:44:25;11.30;99.90
15156;DHT22;7678;50.058;8.306;2022-11-15T10:47:23;11.40;99.90
15156;DHT22;7678;50.058;8.306;2022-11-15T10:49:57;11.40;99.90
15156;DHT22;7678;50.058;8.306;2022-11-15T10:52:26;11.40;99.90
15156;DHT22;7678;50.058;8.306;2022-11-15T10:54:58;11.40;99.90
15156;DHT22;7678;50.058;8.306;2022-11-15T10:57:30;11.40;99.90
15156;DHT22;7678;50.058;8.306;2022-11-15T11:00:01;11.40;99.90
15156;DHT22;7678;50.058;8.306;2022-11-15T11:02:32;11.40;99.90
15156;DHT22;7678;50.058;8.306;2022-11-15T11:05:03;11.40;99.90
15156;DHT22;7678;50.058;8.306;2022-11-15T11:07:33;11.50;99.90
15156;DHT22;7678;50.058;8.306;2022-11-15T11:10:17;11.70;99.90
15156;DHT22;7678;50.058;8.306;2022-11-15T11:13:13;11.70;99.90
15156;DHT22;7678;50.058;8.306;2022-11-15T11:15:44;11.80;99.90
15156;DHT22;7678;50.058;8.306;2022-11-15T11:18:19;11.70;99.90
15156;DHT22;7678;50.058;8.306;2022-11-15T11:20:54;11.60;99.90
15156;DHT22;7678;50.058;8.306;2022-11-15T11:23:37;11.70;99.90
15156;DHT22;7678;50.058;8.306;2022-11-15T11:26:18;11.80;99.90
15156;DHT22;7678;50.058;8.306;2022-11-15T11:28:58;11.80;99.90
15156;DHT22;7678;50.058;8.306;2022-11-15T11:31:34;11.80;99.90
15156;DHT22;7678;50.058;8.306;2022-11-15T11:34:15;11.70;99.90
15156;DHT22;7678;50.058;8.306;2022-11-15T11:37:00;11.70;99.90
15156;DHT22;7678;50.058;8.306;2022-11-15T11:39:39;11.70;99.90
15156;DHT22;7678;50.058;8.306;2022-11-15T11:42:17;11.90;99.90
15156;DHT22;7678;50.058;8.306;2022-11-15T11:44:57;11.90;99.90
15156;DHT22;7678;50.058;8.306;2022-11-15T11:47:31;11.90;99.90
15156;DHT22;7678;50.058;8.306;2022-11-15T11:50:10;12.00;99.90
15156;DHT22;7678;50.058;8.306;2022-11-15T11:52:54;12.00;99.90
15156;DHT22;7678;50.058;8.306;2022-11-15T11:55:33;12.00;99.90
15156;DHT22;7678;50.058;8.306;2022-11-15T11:58:15;12.00;99.90
15156;DHT22;7678;50.058;8.306;2022-11-15T12:00:51;12.00;99.90
15156;DHT22;7678;50.058;8.306;2022-11-15T12:03:24;12.00;99.90
15156;DHT22;7678;50.058;8.306;2022-11-15T12:05:57;12.10;99.90
15156;DHT22;7678;50.058;8.306;2022-11-15T12:08:32;12.30;99.90
15156;DHT22;7678;50.058;8.306;2022-11-15T12:11:09;12.30;99.90
15156;DHT22;7678;50.058;8.306;2022-11-15T12:13:40;12.10;99.90
15156;DHT22;7678;50.058;8.306;2022-11-15T12:16:14;12.10;99.90
15156;DHT22;7678;50.058;8.306;2022-11-15T12:18:47;12.10;99.90
15156;DHT22;7678;50.058;8.306;2022-11-15T12:21:21;11.90;99.90
15156;DHT22;7678;50.058;8.306;2022-11-15T12:24:01;11.90;99.90
15156;DHT22;7678;50.058;8.306;2022-11-15T12:26:34;11.90;99.90
15156;DHT22;7678;50.058;8.306;2022-11-15T12:29:10;11.90;99.90
15156;DHT22;7678;50.058;8.306;2022-11-15T12:31:41;12.00;99.90
15156;DHT22;7678;50.058;8.306;2022-11-15T12:34:30;12.10;99.90
15156;DHT22;7678;50.058;8.306;2022-11-15T12:40:29;12.10;99.90
15156;DHT22;7678;50.058;8.306;2022-11-15T12:43:00;12.20;99.90
15156;DHT22;7678;50.058;8.306;2022-11-15T12:45:31;12.30;99.90
15156;DHT22;7678;50.058;8.306;2022-11-15T12:51:04;12.20;99.90
15156;DHT22;7678;50.058;8.306;2022-11-15T12:53:33;12.20;99.90
15156;DHT22;7678;50.058;8.306;2022-11-15T12:56:20;12.10;99.90
15156;DHT22;7678;50.058;8.306;2022-11-15T12:58:53;12.20;99.90
15156;DHT22;7678;50.058;8.306;2022-11-15T13:01:57;12.20;99.90
15156;DHT22;7678;50.058;8.306;2022-11-15T13:04:28;12.30;99.90
15156;DHT22;7678;50.058;8.306;2022-11-15T13:06:58;12.30;99.90
15156;DHT22;7678;50.058;8.306;2022-11-15T13:09:50;12.40;99.90
15156;DHT22;7678;50.058;8.306;2022-11-15T13:12:50;12.40;99.90
15156;DHT22;7678;50.058;8.306;2022-11-15T13:15:34;12.40;99.90
15156;DHT22;7678;50.058;8.306;2022-11-15T13:18:35;12.40;99.90
15156;DHT22;7678;50.058;8.306;2022-11-15T13:21:18;12.50;99.90
15156;DHT22;7678;50.058;8.306;2022-11-15T13:24:04;12.30;99.90
15156;DHT22;7678;50.058;8.306;2022-11-15T13:26:38;12.30;99.90
15156;DHT22;7678;50.058;8.306;2022-11-15T13:29:16;12.40;99.90
15156;DHT22;7678;50.058;8.306;2022-11-15T13:31:45;12.40;99.90
15156;DHT22;7678;50.058;8.306;2022-11-15T13:34:24;12.20;99.90
15156;DHT22;7678;50.058;8.306;2022-11-15T13:37:28;12.30;99.90
15156;DHT22;7678;50.058;8.306;2022-11-15T13:40:16;12.20;99.90
15156;DHT22;7678;50.058;8.306;2022-11-15T13:42:46;12.20;99.90
15156;DHT22;7678;50.058;8.306;2022-11-15T13:45:17;12.20;99.90
15156;DHT22;7678;50.058;8.306;2022-11-15T13:47:53;12.20;99.90
15156;DHT22;7678;50.058;8.306;2022-11-15T13:50:26;12.20;99.90
15156;DHT22;7678;50.058;8.306;2022-11-15T13:52:58;12.20;99.90
15156;DHT22;7678;50.058;8.306;2022-11-15T13:55:27;12.30;99.90
15156;DHT22;7678;50.058;8.306;2022-11-15T13:57:58;12.30;99.90
15156;DHT22;7678;50.058;8.306;2022-11-15T14:00:32;12.20;99.90
15156;DHT22;7678;50.058;8.306;2022-11-15T14:03:12;12.20;99.90
15156;DHT22;7678;50.058;8.306;2022-11-15T14:06:04;12.10;99.90
15156;DHT22;7678;50.058;8.306;2022-11-15T14:08:34;12.10;99.90
15156;DHT22;7678;50.058;8.306;2022-11-15T14:11:12;12.10;99.90
15156;DHT22;7678;50.058;8.306;2022-11-15T14:13:41;12.00;99.90
15156;DHT22;7678;50.058;8.306;2022-11-15T14:16:17;12.00;99.90
15156;DHT22;7678;50.058;8.306;2022-11-15T14:18:48;11.90;99.90
15156;DHT22;7678;50.058;8.306;2022-11-15T14:21:18;12.00;99.90
15156;DHT22;7678;50.058;8.306;2022-11-15T14:23:49;12.00;99.90
15156;DHT22;7678;50.058;8.306;2022-11-15T14:26:28;12.00;99.90
15156;DHT22;7678;50.058;8.306;2022-11-15T14:28:57;12.00;99.90
15156;DHT22;7678;50.058;8.306;2022-11-15T14:31:25;11.90;99.90
15156;DHT22;7678;50.058;8.306;2022-11-15T14:33:52;11.90;99.90
15156;DHT22;7678;50.058;8.306;2022-11-15T14:36:22;11.90;99.90
15156;DHT22;7678;50.058;8.306;2022-11-15T14:38:50;11.90;99.90
15156;DHT22;7678;50.058;8.306;2022-11-15T14:41:20;11.90;99.90
15156;DHT22;7678;50.058;8.306;2022-11-15T14:43:49;11.90;99.90
15156;DHT22;7678;50.058;8.306;2022-11-15T14:46:17;11.90;99.90
15156;DHT22;7678;50.058;8.306;2022-11-15T14:48:45;11.90;99.90
15156;DHT22;7678;50.058;8.306;2022-11-15T14:51:15;11.80;99.90
15156;DHT22;7678;50.058;8.306;2022-11-15T14:53:48;11.90;99.90
15156;DHT22;7678;50.058;8.306;2022-11-15T14:56:16;11.90;99.90
15156;DHT22;7678;50.058;8.306;2022-11-15T14:58:44;11.90;99.90
15156;DHT22;7678;50.058;8.306;2022-11-15T15:01:17;11.80;99.90
15156;DHT22;7678;50.058;8.306;2022-11-15T15:03:45;11.90;99.90
15156;DHT22;7678;50.058;8.306;2022-11-15T15:06:13;11.90;99.90
15156;DHT22;7678;50.058;8.306;2022-11-15T15:08:44;11.90;99.90
15156;DHT22;7678;50.058;8.306;2022-11-15T15:11:17;11.80;99.90
15156;DHT22;7678;50.058;8.306;2022-11-15T15:13:49;11.80;99.90
15156;DHT22;7678;50.058;8.306;2022-11-15T15:16:19;11.80;99.90
15156;DHT22;7678;50.058;8.306;2022-11-15T15:18:47;11.80;99.90
15156;DHT22;7678;50.058;8.306;2022-11-15T15:21:20;11.80;99.90
15156;DHT22;7678;50.058;8.306;2022-11-15T15:23:48;11.80;99.90
15156;DHT22;7678;50.058;8.306;2022-11-15T15:26:18;11.80;99.90
15156;DHT22;7678;50.058;8.306;2022-11-15T15:28:46;11.70;99.90
15156;DHT22;7678;50.058;8.306;2022-11-15T15:31:15;11.80;99.90
15156;DHT22;7678;50.058;8.306;2022-11-15T15:33:43;11.80;99.90
15156;DHT22;7678;50.058;8.306;2022-11-15T15:36:11;11.80;99.90
15156;DHT22;7678;50.058;8.306;2022-11-15T15:38:40;11.80;99.90
15156;DHT22;7678;50.058;8.306;2022-11-15T15:41:10;11.70;99.90
15156;DHT22;7678;50.058;8.306;2022-11-15T15:43:40;11.60;99.90
15156;DHT22;7678;50.058;8.306;2022-11-15T15:46:10;11.70;99.90
15156;DHT22;7678;50.058;8.306;2022-11-15T15:48:39;11.60;99.90
15156;DHT22;7678;50.058;8.306;2022-11-15T15:51:07;11.60;99.90
15156;DHT22;7678;50.058;8.306;2022-11-15T15:53:45;11.60;99.90
15156;DHT22;7678;50.058;8.306;2022-11-15T15:56:13;11.70;99.90
15156;DHT22;7678;50.058;8.306;2022-11-15T15:58:43;11.60;99.90
15156;DHT22;7678;50.058;8.306;2022-11-15T16:01:11;11.60;99.90
15156;DHT22;7678;50.058;8.306;2022-11-15T16:03:39;11.60;99.90
15156;DHT22;7678;50.058;8.306;2022-11-15T16:06:31;11.70;99.90
15156;DHT22;7678;50.058;8.306;2022-11-15T16:09:00;11.60;99.90
15156;DHT22;7678;50.058;8.306;2022-11-15T16:11:41;11.50;99.90
15156;DHT22;7678;50.058;8.306;2022-11-15T16:14:11;11.50;99.90
15156;DHT22;7678;50.058;8.306;2022-11-15T16:16:42;11.40;99.90
15156;DHT22;7678;50.058;8.306;2022-11-15T16:19:10;11.50;99.90
15156;DHT22;7678;50.058;8.306;2022-11-15T16:21:39;11.40;99.90
15156;DHT22;7678;50.058;8.306;2022-11-15T16:24:07;11.50;99.90
15156;DHT22;7678;50.058;8.306;2022-11-15T16:26:36;11.50;99.90
15156;DHT22;7678;50.058;8.306;2022-11-15T16:29:04;11.40;99.90
15156;DHT22;7678;50.058;8.306;2022-11-15T16:31:34;11.30;99.90
15156;DHT22;7678;50.058;8.306;2022-11-15T16:34:02;11.30;99.90
15156;DHT22;7678;50.058;8.306;2022-11-15T16:36:33;11.30;99.90